sensor_id;sensor_type;location;lat;lon;timestamp;temperature;humidity
21090;DHT22;10703;51.020;6.128;2023-04-03T00:00:50;-0.50;99.90
21090;DHT22;10703;51.020;6.128;2023-04-03T00:03:19;-0.50;99.90
21090;DHT22;10703;51.020;6.128;2023-04-03T00:05:46;-0.60;99.90
21090;DHT22;10703;51.020;6.128;2023-04-03T00:08:13;-0.60;99.90
21090;DHT22;10703;51.020;6.128;2023-04-03T00:10:39;-0.60;99.90
21090;DHT22;10703;51.020;6.128;2023-04-03T00:13:06;-0.60;99.90
21090;DHT22;10703;51.020;6.128;2023-04-03T00:15:34;-0.60;99.90
21090;DHT22;10703;51.020;6.128;2023-04-03T00:18:02;-0.70;99.90
21090;DHT22;10703;51.020;6.128;2023-04-03T00:20:29;-0.60;99.90
21090;DHT22;10703;51.020;6.128;2023-04-03T00:22:55;-0.60;99.90
21090;DHT22;10703;51.020;6.128;2023-04-03T00:25:22;-0.60;99.90
21090;DHT22;10703;51.020;6.128;2023-04-03T00:27:49;-0.70;99.90
21090;DHT22;10703;51.020;6.128;2023-04-03T00:30:17;-0.80;99.90
21090;DHT22;10703;51.020;6.128;2023-04-03T00:32:45;-0.80;99.90
21090;DHT22;10703;51.020;6.128;2023-04-03T00:35:12;-0.80;99.90
21090;DHT22;10703;51.020;6.128;2023-04-03T00:37:43;-0.90;99.90
21090;DHT22;10703;51.020;6.128;2023-04-03T00:40:10;-0.90;99.90
21090;DHT22;10703;51.020;6.128;2023-04-03T00:42:40;-1.00;99.90
21090;DHT22;10703;51.020;6.128;2023-04-03T00:45:30;-1.00;99.90
21090;DHT22;10703;51.020;6.128;2023-04-03T00:47:57;-1.10;99.90
21090;DHT22;10703;51.020;6.128;2023-04-03T00:50:28;-1.00;99.90
21090;DHT22;10703;51.020;6.128;2023-04-03T00:52:56;-1.00;99.90
21090;DHT22;10703;51.020;6.128;2023-04-03T00:55:23;-1.00;99.90
21090;DHT22;10703;51.020;6.128;2023-04-03T00:57:49;-1.10;99.90
21090;DHT22;10703;51.020;6.128;2023-04-03T01:00:20;-1.00;99.90
21090;DHT22;10703;51.020;6.128;2023-04-03T01:02:50;-1.10;99.90
21090;DHT22;10703;51.020;6.128;2023-04-03T01:05:18;-1.10;99.90
21090;DHT22;10703;51.020;6.128;2023-04-03T01:07:46;-1.10;99.90
21090;DHT22;10703;51.020;6.128;2023-04-03T01:10:16;-1.00;99.90
21090;DHT22;10703;51.020;6.128;2023-04-03T01:12:45;-1.00;99.90
21090;DHT22;10703;51.020;6.128;2023-04-03T01:15:19;-1.00;99.90
21090;DHT22;10703;51.020;6.128;2023-04-03T01:17:54;-1.00;99.90
21090;DHT22;10703;51.020;6.128;2023-04-03T01:28:15;-1.20;99.90
21090;DHT22;10703;51.020;6.128;2023-04-03T01:33:48;-1.20;99.90
21090;DHT22;10703;51.020;6.128;2023-04-03T01:36:24;-1.20;99.90
21090;DHT22;10703;51.020;6.128;2023-04-03T01:38:52;-1.20;99.90
21090;DHT22;10703;51.020;6.128;2023-04-03T01:41:20;-1.20;99.90
21090;DHT22;10703;51.020;6.128;2023-04-03T01:43:48;-1.20;99.90
21090;DHT22;10703;51.020;6.128;2023-04-03T01:46:16;-1.20;99.90
21090;DHT22;10703;51.020;6.128;2023-04-03T01:48:43;-1.20;99.90
21090;DHT22;10703;51.020;6.128;2023-04-03T01:51:09;-1.30;99.90
21090;DHT22;10703;51.020;6.128;2023-04-03T01:53:36;-1.30;99.90
21090;DHT22;10703;51.020;6.128;2023-04-03T01:56:03;-1.30;99.90
21090;DHT22;10703;51.020;6.128;2023-04-03T01:58:30;-1.40;99.90
21090;DHT22;10703;51.020;6.128;2023-04-03T02:00:56;-1.30;99.90
21090;DHT22;10703;51.020;6.128;2023-04-03T02:03:23;-1.40;99.90
21090;DHT22;10703;51.020;6.128;2023-04-03T02:05:50;-1.50;99.90
21090;DHT22;10703;51.020;6.128;2023-04-03T02:08:16;-1.50;99.90
21090;DHT22;10703;51.020;6.128;2023-04-03T02:10:49;-1.50;99.90
21090;DHT22;10703;51.020;6.128;2023-04-03T02:13:17;-1.50;99.90
21090;DHT22;10703;51.020;6.128;2023-04-03T02:15:43;-1.60;99.90
21090;DHT22;10703;51.020;6.128;2023-04-03T02:18:12;-1.50;99.90
21090;DHT22;10703;51.020;6.128;2023-04-03T02:20:39;-1.60;99.90
21090;DHT22;10703;51.020;6.128;2023-04-03T02:23:05;-1.60;99.90
21090;DHT22;10703;51.020;6.128;2023-04-03T02:25:32;-1.70;99.90
21090;DHT22;10703;51.020;6.128;2023-04-03T02:28:00;-1.60;99.90
21090;DHT22;10703;51.020;6.128;2023-04-03T02:30:27;-1.60;99.90
21090;DHT22;10703;51.020;6.128;2023-04-03T02:32:53;-1.70;99.90
21090;DHT22;10703;51.020;6.128;2023-04-03T02:35:21;-1.70;99.90
21090;DHT22;10703;51.020;6.128;2023-04-03T02:37:48;-1.80;99.90
21090;DHT22;10703;51.020;6.128;2023-04-03T02:40:15;-1.70;99.90
21090;DHT22;10703;51.020;6.128;2023-04-03T02:42:42;-1.80;99.90
21090;DHT22;10703;51.020;6.128;2023-04-03T02:45:08;-1.80;99.90
21090;DHT22;10703;51.020;6.128;2023-04-03T02:47:35;-1.80;99.90
21090;DHT22;10703;51.020;6.128;2023-04-03T02:50:02;-1.80;99.90
21090;DHT22;10703;51.020;6.128;2023-04-03T02:52:29;-1.80;99.90
21090;DHT22;10703;51.020;6.128;2023-04-03T02:54:56;-1.80;99.90
21090;DHT22;10703;51.020;6.128;2023-04-03T02:57:22;-1.80;99.90
21090;DHT22;10703;51.020;6.128;2023-04-03T02:59:49;-1.90;99.90
21090;DHT22;10703;51.020;6.128;2023-04-03T03:02:16;-1.80;99.90
21090;DHT22;10703;51.020;6.128;2023-04-03T03:04:42;-1.70;99.90
21090;DHT22;10703;51.020;6.128;2023-04-03T03:07:09;-1.70;99.90
21090;DHT22;10703;51.020;6.128;2023-04-03T03:09:36;-1.60;99.90
21090;DHT22;10703;51.020;6.128;2023-04-03T03:12:03;-1.50;99.90
21090;DHT22;10703;51.020;6.128;2023-04-03T03:14:29;-1.60;99.90
21090;DHT22;10703;51.020;6.128;2023-04-03T03:16:56;-1.50;99.90
21090;DHT22;10703;51.020;6.128;2023-04-03T03:19:23;-1.40;99.90
21090;DHT22;10703;51.020;6.128;2023-04-03T03:21:49;-1.40;99.90
21090;DHT22;10703;51.020;6.128;2023-04-03T03:24:16;-1.50;99.90
21090;DHT22;10703;51.020;6.128;2023-04-03T03:26:43;-1.50;99.90
21090;DHT22;10703;51.020;6.128;2023-04-03T03:29:09;-1.60;99.90
21090;DHT22;10703;51.020;6.128;2023-04-03T03:31:36;-1.60;99.90
21090;DHT22;10703;51.020;6.128;2023-04-03T03:34:03;-1.50;99.90
21090;DHT22;10703;51.020;6.128;2023-04-03T03:36:29;-1.50;99.90
21090;DHT22;10703;51.020;6.128;2023-04-03T03:38:56;-1.40;99.90
21090;DHT22;10703;51.020;6.128;2023-04-03T03:41:23;-1.30;99.90
21090;DHT22;10703;51.020;6.128;2023-04-03T03:43:49;-1.20;99.90
21090;DHT22;10703;51.020;6.128;2023-04-03T03:46:16;-1.20;99.90
21090;DHT22;10703;51.020;6.128;2023-04-03T03:48:43;-1.40;99.90
21090;DHT22;10703;51.020;6.128;2023-04-03T03:51:09;-1.40;99.90
21090;DHT22;10703;51.020;6.128;2023-04-03T03:53:36;-1.40;99.90
21090;DHT22;10703;51.020;6.128;2023-04-03T03:56:03;-1.40;99.90
21090;DHT22;10703;51.020;6.128;2023-04-03T03:58:30;-1.40;99.90
21090;DHT22;10703;51.020;6.128;2023-04-03T04:01:00;-1.40;99.90
21090;DHT22;10703;51.020;6.128;2023-04-03T04:03:27;-1.30;99.90
21090;DHT22;10703;51.020;6.128;2023-04-03T04:05:54;-1.30;99.90
21090;DHT22;10703;51.020;6.128;2023-04-03T04:08:21;-1.30;99.90
21090;DHT22;10703;51.020;6.128;2023-04-03T04:10:47;-1.30;99.90
21090;DHT22;10703;51.020;6.128;2023-04-03T04:13:14;-1.10;99.90
21090;DHT22;10703;51.020;6.128;2023-04-03T04:15:41;-1.10;99.90
21090;DHT22;10703;51.020;6.128;2023-04-03T04:18:08;-1.20;99.90
21090;DHT22;10703;51.020;6.128;2023-04-03T04:20:34;-1.20;99.90
21090;DHT22;10703;51.020;6.128;2023-04-03T04:23:01;-1.10;99.90
21090;DHT22;10703;51.020;6.128;2023-04-03T04:25:27;-1.10;99.90
21090;DHT22;10703;51.020;6.128;2023-04-03T04:27:54;-1.10;99.90
21090;DHT22;10703;51.020;6.128;2023-04-03T04:30:21;-1.20;99.90
21090;DHT22;10703;51.020;6.128;2023-04-03T04:32:47;-1.20;99.90
21090;DHT22;10703;51.020;6.128;2023-04-03T04:35:14;-1.20;99.90
21090;DHT22;10703;51.020;6.128;2023-04-03T04:37:42;-1.10;99.90
21090;DHT22;10703;51.020;6.128;2023-04-03T04:40:09;-1.20;99.90
21090;DHT22;10703;51.020;6.128;2023-04-03T04:42:35;-1.10;99.90
21090;DHT22;10703;51.020;6.128;2023-04-03T04:45:02;-1.10;99.90
21090;DHT22;10703;51.020;6.128;2023-04-03T04:47:29;-1.00;99.90
21090;DHT22;10703;51.020;6.128;2023-04-03T04:49:56;-1.10;99.90
21090;DHT22;10703;51.020;6.128;2023-04-03T04:52:22;-1.10;99.90
21090;DHT22;10703;51.020;6.128;2023-04-03T04:54:49;-1.10;99.90
21090;DHT22;10703;51.020;6.128;2023-04-03T04:57:15;-1.10;99.90
21090;DHT22;10703;51.020;6.128;2023-04-03T04:59:42;-1.10;99.90
21090;DHT22;10703;51.020;6.128;2023-04-03T05:02:08;-1.10;99.90
21090;DHT22;10703;51.020;6.128;2023-04-03T05:04:35;-1.00;99.90
21090;DHT22;10703;51.020;6.128;2023-04-03T05:07:02;-1.00;99.90
21090;DHT22;10703;51.020;6.128;2023-04-03T05:09:28;-1.00;99.90
21090;DHT22;10703;51.020;6.128;2023-04-03T05:11:55;-1.00;99.90
21090;DHT22;10703;51.020;6.128;2023-04-03T05:14:22;-0.90;99.90
21090;DHT22;10703;51.020;6.128;2023-04-03T05:16:49;-1.00;99.90
21090;DHT22;10703;51.020;6.128;2023-04-03T05:19:19;-0.90;99.90
21090;DHT22;10703;51.020;6.128;2023-04-03T05:21:46;-0.90;99.90
21090;DHT22;10703;51.020;6.128;2023-04-03T05:24:14;-0.90;99.90
21090;DHT22;10703;51.020;6.128;2023-04-03T05:26:42;-0.90;99.90
21090;DHT22;10703;51.020;6.128;2023-04-03T05:29:09;-0.90;99.90
21090;DHT22;10703;51.020;6.128;2023-04-03T05:31:36;-0.80;99.90
21090;DHT22;10703;51.020;6.128;2023-04-03T05:34:03;-0.80;99.90
21090;DHT22;10703;51.020;6.128;2023-04-03T05:36:29;-0.80;99.90
21090;DHT22;10703;51.020;6.128;2023-04-03T05:38:56;-0.70;99.90
21090;DHT22;10703;51.020;6.128;2023-04-03T05:41:23;-0.70;99.90
21090;DHT22;10703;51.020;6.128;2023-04-03T05:43:50;-0.70;99.90
21090;DHT22;10703;51.020;6.128;2023-04-03T05:46:18;-0.60;99.90
21090;DHT22;10703;51.020;6.128;2023-04-03T05:48:46;-0.60;99.90
21090;DHT22;10703;51.020;6.128;2023-04-03T05:51:20;-0.50;99.90
21090;DHT22;10703;51.020;6.128;2023-04-03T05:53:48;-0.40;99.90
21090;DHT22;10703;51.020;6.128;2023-04-03T05:56:16;-0.30;99.90
21090;DHT22;10703;51.020;6.128;2023-04-03T05:58:43;-0.20;99.90
21090;DHT22;10703;51.020;6.128;2023-04-03T06:01:09;-0.20;99.90
21090;DHT22;10703;51.020;6.128;2023-04-03T06:03:36;-0.10;99.90
21090;DHT22;10703;51.020;6.128;2023-04-03T06:06:05;-0.10;99.90
21090;DHT22;10703;51.020;6.128;2023-04-03T06:08:32;0.00;99.90
21090;DHT22;10703;51.020;6.128;2023-04-03T06:10:59;0.00;99.90
21090;DHT22;10703;51.020;6.128;2023-04-03T06:13:26;0.00;99.90
21090;DHT22;10703;51.020;6.128;2023-04-03T06:15:52;0.10;99.90
21090;DHT22;10703;51.020;6.128;2023-04-03T06:18:19;0.20;99.90
21090;DHT22;10703;51.020;6.128;2023-04-03T06:20:45;0.20;99.90
21090;DHT22;10703;51.020;6.128;2023-04-03T06:23:12;0.30;99.90
21090;DHT22;10703;51.020;6.128;2023-04-03T06:25:38;0.40;99.90
21090;DHT22;10703;51.020;6.128;2023-04-03T06:28:05;0.50;99.90
21090;DHT22;10703;51.020;6.128;2023-04-03T06:30:34;0.60;99.90
21090;DHT22;10703;51.020;6.128;2023-04-03T06:33:02;0.60;99.90
21090;DHT22;10703;51.020;6.128;2023-04-03T06:35:28;0.80;99.90
21090;DHT22;10703;51.020;6.128;2023-04-03T06:37:56;0.90;99.90
21090;DHT22;10703;51.020;6.128;2023-04-03T06:40:25;1.00;99.90
21090;DHT22;10703;51.020;6.128;2023-04-03T06:42:52;1.10;99.90
21090;DHT22;10703;51.020;6.128;2023-04-03T06:45:19;1.20;99.90
21090;DHT22;10703;51.020;6.128;2023-04-03T06:47:46;1.20;99.90
21090;DHT22;10703;51.020;6.128;2023-04-03T06:50:13;1.40;99.90
21090;DHT22;10703;51.020;6.128;2023-04-03T06:52:41;1.40;99.90
21090;DHT22;10703;51.020;6.128;2023-04-03T06:55:08;1.50;99.90
21090;DHT22;10703;51.020;6.128;2023-04-03T06:57:36;1.60;99.90
21090;DHT22;10703;51.020;6.128;2023-04-03T07:00:04;1.70;99.90
21090;DHT22;10703;51.020;6.128;2023-04-03T07:02:31;1.80;99.90
21090;DHT22;10703;51.020;6.128;2023-04-03T07:04:57;1.90;99.90
21090;DHT22;10703;51.020;6.128;2023-04-03T07:07:24;1.90;99.90
21090;DHT22;10703;51.020;6.128;2023-04-03T07:09:51;2.00;99.90
21090;DHT22;10703;51.020;6.128;2023-04-03T07:12:17;2.10;99.90
21090;DHT22;10703;51.020;6.128;2023-04-03T07:14:44;2.20;99.90
21090;DHT22;10703;51.020;6.128;2023-04-03T07:17:10;2.30;99.90
21090;DHT22;10703;51.020;6.128;2023-04-03T07:19:37;2.50;99.90
21090;DHT22;10703;51.020;6.128;2023-04-03T07:22:04;2.90;99.90
21090;DHT22;10703;51.020;6.128;2023-04-03T07:24:30;3.50;99.90
21090;DHT22;10703;51.020;6.128;2023-04-03T07:26:57;4.10;99.90
21090;DHT22;10703;51.020;6.128;2023-04-03T07:29:23;4.60;99.90
21090;DHT22;10703;51.020;6.128;2023-04-03T07:31:50;5.00;99.90
21090;DHT22;10703;51.020;6.128;2023-04-03T07:34:17;5.50;99.90
21090;DHT22;10703;51.020;6.128;2023-04-03T07:36:43;5.90;99.90
21090;DHT22;10703;51.020;6.128;2023-04-03T07:39:10;6.40;99.90
21090;DHT22;10703;51.020;6.128;2023-04-03T07:41:37;6.90;99.90
21090;DHT22;10703;51.020;6.128;2023-04-03T07:44:04;6.80;99.90
21090;DHT22;10703;51.020;6.128;2023-04-03T07:46:32;7.30;99.90
21090;DHT22;10703;51.020;6.128;2023-04-03T07:48:58;8.00;99.90
21090;DHT22;10703;51.020;6.128;2023-04-03T07:51:25;8.70;99.90
21090;DHT22;10703;51.020;6.128;2023-04-03T07:53:53;8.50;99.90
21090;DHT22;10703;51.020;6.128;2023-04-03T07:56:20;8.70;99.90
21090;DHT22;10703;51.020;6.128;2023-04-03T07:58:47;9.00;99.90
21090;DHT22;10703;51.020;6.128;2023-04-03T08:01:13;9.10;99.90
21090;DHT22;10703;51.020;6.128;2023-04-03T08:03:40;9.10;99.90
21090;DHT22;10703;51.020;6.128;2023-04-03T08:06:07;9.50;99.90
21090;DHT22;10703;51.020;6.128;2023-04-03T08:08:41;8.80;99.90
21090;DHT22;10703;51.020;6.128;2023-04-03T08:11:09;8.70;99.90
21090;DHT22;10703;51.020;6.128;2023-04-03T08:13:36;9.20;99.90
21090;DHT22;10703;51.020;6.128;2023-04-03T08:16:08;9.50;99.90
21090;DHT22;10703;51.020;6.128;2023-04-03T08:18:35;9.60;99.90
21090;DHT22;10703;51.020;6.128;2023-04-03T08:21:05;9.70;99.90
21090;DHT22;10703;51.020;6.128;2023-04-03T08:23:32;9.60;99.90
21090;DHT22;10703;51.020;6.128;2023-04-03T08:25:58;9.60;99.90
21090;DHT22;10703;51.020;6.128;2023-04-03T08:28:25;9.50;99.90
21090;DHT22;10703;51.020;6.128;2023-04-03T08:30:51;9.60;99.90
21090;DHT22;10703;51.020;6.128;2023-04-03T08:33:18;9.90;99.90
21090;DHT22;10703;51.020;6.128;2023-04-03T08:35:45;10.10;99.90
21090;DHT22;10703;51.020;6.128;2023-04-03T08:38:11;10.30;99.90
21090;DHT22;10703;51.020;6.128;2023-04-03T08:40:39;10.60;99.90
21090;DHT22;10703;51.020;6.128;2023-04-03T08:48:20;11.20;99.20
21090;DHT22;10703;51.020;6.128;2023-04-03T08:50:59;11.20;98.50
21090;DHT22;10703;51.020;6.128;2023-04-03T08:53:32;11.10;97.90
21090;DHT22;10703;51.020;6.128;2023-04-03T08:56:04;10.60;96.90
21090;DHT22;10703;51.020;6.128;2023-04-03T08:58:40;11.50;96.70
21090;DHT22;10703;51.020;6.128;2023-04-03T09:03:45;11.20;96.90
21090;DHT22;10703;51.020;6.128;2023-04-03T09:06:23;11.80;95.90
21090;DHT22;10703;51.020;6.128;2023-04-03T09:08:59;11.90;96.20
21090;DHT22;10703;51.020;6.128;2023-04-03T09:12:12;12.20;96.10
21090;DHT22;10703;51.020;6.128;2023-04-03T09:14:51;12.10;94.80
21090;DHT22;10703;51.020;6.128;2023-04-03T09:20:39;12.30;94.00
21090;DHT22;10703;51.020;6.128;2023-04-03T09:23:42;11.80;94.00
21090;DHT22;10703;51.020;6.128;2023-04-03T09:26:24;12.20;94.10
21090;DHT22;10703;51.020;6.128;2023-04-03T09:28:55;12.40;93.50
21090;DHT22;10703;51.020;6.128;2023-04-03T09:31:26;12.50;93.20
21090;DHT22;10703;51.020;6.128;2023-04-03T09:33:57;12.70;92.50
21090;DHT22;10703;51.020;6.128;2023-04-03T09:39:18;12.60;89.40
21090;DHT22;10703;51.020;6.128;2023-04-03T09:41:57;11.70;88.70
21090;DHT22;10703;51.020;6.128;2023-04-03T09:44:36;12.10;90.60
21090;DHT22;10703;51.020;6.128;2023-04-03T09:47:22;11.70;89.80
21090;DHT22;10703;51.020;6.128;2023-04-03T09:49:50;10.80;89.90
21090;DHT22;10703;51.020;6.128;2023-04-03T09:52:23;11.20;88.10
21090;DHT22;10703;51.020;6.128;2023-04-03T09:54:51;11.80;90.10
21090;DHT22;10703;51.020;6.128;2023-04-03T09:57:17;12.10;88.40
21090;DHT22;10703;51.020;6.128;2023-04-03T09:59:58;12.50;88.60
21090;DHT22;10703;51.020;6.128;2023-04-03T10:02:40;13.20;87.10
21090;DHT22;10703;51.020;6.128;2023-04-03T10:05:27;13.90;87.70
21090;DHT22;10703;51.020;6.128;2023-04-03T10:10:44;13.40;85.60
21090;DHT22;10703;51.020;6.128;2023-04-03T10:13:14;13.80;83.00
21090;DHT22;10703;51.020;6.128;2023-04-03T10:15:56;13.80;84.00
21090;DHT22;10703;51.020;6.128;2023-04-03T10:18:32;13.60;82.10
21090;DHT22;10703;51.020;6.128;2023-04-03T10:24:28;13.80;78.20
21090;DHT22;10703;51.020;6.128;2023-04-03T10:32:25;12.40;79.00
21090;DHT22;10703;51.020;6.128;2023-04-03T10:35:06;12.80;79.30
21090;DHT22;10703;51.020;6.128;2023-04-03T10:38:03;13.80;81.10
21090;DHT22;10703;51.020;6.128;2023-04-03T10:40:33;14.40;81.80
21090;DHT22;10703;51.020;6.128;2023-04-03T10:43:11;14.90;80.50
21090;DHT22;10703;51.020;6.128;2023-04-03T10:46:09;15.40;77.80
21090;DHT22;10703;51.020;6.128;2023-04-03T10:56:48;15.80;76.80
21090;DHT22;10703;51.020;6.128;2023-04-03T10:59:39;14.90;76.90
21090;DHT22;10703;51.020;6.128;2023-04-03T11:02:19;15.60;77.30
21090;DHT22;10703;51.020;6.128;2023-04-03T11:04:52;16.40;77.30
21090;DHT22;10703;51.020;6.128;2023-04-03T11:07:22;16.70;75.60
21090;DHT22;10703;51.020;6.128;2023-04-03T11:09:57;15.90;75.90
21090;DHT22;10703;51.020;6.128;2023-04-03T11:12:56;16.20;74.50
21090;DHT22;10703;51.020;6.128;2023-04-03T11:15:25;16.20;75.50
21090;DHT22;10703;51.020;6.128;2023-04-03T11:17:58;16.00;73.70
21090;DHT22;10703;51.020;6.128;2023-04-03T11:20:30;16.40;75.00
21090;DHT22;10703;51.020;6.128;2023-04-03T11:25:51;17.30;74.00
21090;DHT22;10703;51.020;6.128;2023-04-03T11:28:18;17.10;71.20
21090;DHT22;10703;51.020;6.128;2023-04-03T11:30:49;17.90;72.20
21090;DHT22;10703;51.020;6.128;2023-04-03T11:35:57;16.20;71.60
21090;DHT22;10703;51.020;6.128;2023-04-03T11:38:35;16.10;72.00
21090;DHT22;10703;51.020;6.128;2023-04-03T11:41:05;16.70;72.10
21090;DHT22;10703;51.020;6.128;2023-04-03T11:43:33;18.00;72.60
21090;DHT22;10703;51.020;6.128;2023-04-03T11:46:07;17.70;72.50
21090;DHT22;10703;51.020;6.128;2023-04-03T11:51:03;18.60;70.00
21090;DHT22;10703;51.020;6.128;2023-04-03T11:53:49;18.70;69.90
21090;DHT22;10703;51.020;6.128;2023-04-03T12:01:54;18.20;72.30
21090;DHT22;10703;51.020;6.128;2023-04-03T12:04:24;19.00;71.80
21090;DHT22;10703;51.020;6.128;2023-04-03T12:07:11;17.70;72.20
21090;DHT22;10703;51.020;6.128;2023-04-03T12:12:32;19.40;68.80
21090;DHT22;10703;51.020;6.128;2023-04-03T12:15:23;18.00;71.90
21090;DHT22;10703;51.020;6.128;2023-04-03T12:17:50;17.60;71.30
21090;DHT22;10703;51.020;6.128;2023-04-03T12:20:51;18.60;67.90
21090;DHT22;10703;51.020;6.128;2023-04-03T12:23:31;18.10;70.60
21090;DHT22;10703;51.020;6.128;2023-04-03T12:26:05;18.20;69.00
21090;DHT22;10703;51.020;6.128;2023-04-03T12:28:37;17.80;68.30
21090;DHT22;10703;51.020;6.128;2023-04-03T12:31:08;17.80;68.00
21090;DHT22;10703;51.020;6.128;2023-04-03T12:36:18;18.30;66.40
21090;DHT22;10703;51.020;6.128;2023-04-03T12:39:17;16.90;67.50
21090;DHT22;10703;51.020;6.128;2023-04-03T12:41:52;17.80;70.50
21090;DHT22;10703;51.020;6.128;2023-04-03T12:44:31;18.10;66.80
21090;DHT22;10703;51.020;6.128;2023-04-03T12:47:25;17.20;66.00
21090;DHT22;10703;51.020;6.128;2023-04-03T12:49:53;17.30;64.70
21090;DHT22;10703;51.020;6.128;2023-04-03T12:52:33;17.00;66.70
21090;DHT22;10703;51.020;6.128;2023-04-03T12:55:02;16.70;66.20
21090;DHT22;10703;51.020;6.128;2023-04-03T12:57:31;16.60;68.70
21090;DHT22;10703;51.020;6.128;2023-04-03T12:59:59;15.10;68.90
21090;DHT22;10703;51.020;6.128;2023-04-03T13:02:31;15.50;71.10
21090;DHT22;10703;51.020;6.128;2023-04-03T13:05:07;16.70;72.80
21090;DHT22;10703;51.020;6.128;2023-04-03T13:07:36;18.30;68.40
21090;DHT22;10703;51.020;6.128;2023-04-03T13:12:46;19.00;66.60
21090;DHT22;10703;51.020;6.128;2023-04-03T13:15:27;18.90;66.10
21090;DHT22;10703;51.020;6.128;2023-04-03T13:17:54;18.90;67.70
21090;DHT22;10703;51.020;6.128;2023-04-03T13:20:28;19.60;63.40
21090;DHT22;10703;51.020;6.128;2023-04-03T13:23:05;18.00;62.70
21090;DHT22;10703;51.020;6.128;2023-04-03T13:25:40;18.10;65.30
21090;DHT22;10703;51.020;6.128;2023-04-03T13:28:13;18.50;65.30
21090;DHT22;10703;51.020;6.128;2023-04-03T13:34:18;19.10;64.60
21090;DHT22;10703;51.020;6.128;2023-04-03T13:36:44;19.70;62.10
21090;DHT22;10703;51.020;6.128;2023-04-03T13:41:44;20.00;64.30
21090;DHT22;10703;51.020;6.128;2023-04-03T13:47:14;19.20;61.50
21090;DHT22;10703;51.020;6.128;2023-04-03T13:50:13;19.10;64.10
21090;DHT22;10703;51.020;6.128;2023-04-03T13:52:54;19.30;62.40
21090;DHT22;10703;51.020;6.128;2023-04-03T13:55:22;18.50;63.20
21090;DHT22;10703;51.020;6.128;2023-04-03T13:57:58;18.00;64.60
21090;DHT22;10703;51.020;6.128;2023-04-03T14:00:50;18.30;62.50
21090;DHT22;10703;51.020;6.128;2023-04-03T14:03:30;18.90;64.10
21090;DHT22;10703;51.020;6.128;2023-04-03T14:05:58;19.00;60.10
21090;DHT22;10703;51.020;6.128;2023-04-03T14:08:24;18.70;60.30
21090;DHT22;10703;51.020;6.128;2023-04-03T14:11:20;19.50;61.80
21090;DHT22;10703;51.020;6.128;2023-04-03T14:13:48;20.00;61.60
21090;DHT22;10703;51.020;6.128;2023-04-03T14:16:18;19.40;62.20
21090;DHT22;10703;51.020;6.128;2023-04-03T14:18:46;17.90;61.00
21090;DHT22;10703;51.020;6.128;2023-04-03T14:21:16;19.40;60.90
21090;DHT22;10703;51.020;6.128;2023-04-03T14:23:42;18.80;61.90
21090;DHT22;10703;51.020;6.128;2023-04-03T14:26:18;17.30;60.00
21090;DHT22;10703;51.020;6.128;2023-04-03T14:28:48;18.40;63.20
21090;DHT22;10703;51.020;6.128;2023-04-03T14:31:16;19.30;61.60
21090;DHT22;10703;51.020;6.128;2023-04-03T14:33:43;19.20;59.90
21090;DHT22;10703;51.020;6.128;2023-04-03T14:36:14;20.40;62.20
21090;DHT22;10703;51.020;6.128;2023-04-03T14:38:43;20.20;59.20
21090;DHT22;10703;51.020;6.128;2023-04-03T14:41:12;20.70;60.10
21090;DHT22;10703;51.020;6.128;2023-04-03T14:43:44;20.80;60.40
21090;DHT22;10703;51.020;6.128;2023-04-03T14:46:14;21.00;59.50
21090;DHT22;10703;51.020;6.128;2023-04-03T14:48:42;20.60;59.70
21090;DHT22;10703;51.020;6.128;2023-04-03T14:51:11;21.20;60.50
21090;DHT22;10703;51.020;6.128;2023-04-03T14:53:39;21.50;60.10
21090;DHT22;10703;51.020;6.128;2023-04-03T14:56:17;20.80;59.20
21090;DHT22;10703;51.020;6.128;2023-04-03T14:58:45;20.90;59.30
21090;DHT22;10703;51.020;6.128;2023-04-03T15:01:16;20.10;59.20
21090;DHT22;10703;51.020;6.128;2023-04-03T15:03:43;21.00;60.70
21090;DHT22;10703;51.020;6.128;2023-04-03T15:06:12;21.50;58.60
21090;DHT22;10703;51.020;6.128;2023-04-03T15:08:41;21.80;58.40
21090;DHT22;10703;51.020;6.128;2023-04-03T15:11:10;20.00;57.60
21090;DHT22;10703;51.020;6.128;2023-04-03T15:13:37;20.90;58.20
21090;DHT22;10703;51.020;6.128;2023-04-03T15:16:05;20.80;58.60
21090;DHT22;10703;51.020;6.128;2023-04-03T15:18:38;21.00;58.90
21090;DHT22;10703;51.020;6.128;2023-04-03T15:21:05;19.10;59.70
21090;DHT22;10703;51.020;6.128;2023-04-03T15:23:32;19.30;59.50
21090;DHT22;10703;51.020;6.128;2023-04-03T15:25:59;19.90;59.50
21090;DHT22;10703;51.020;6.128;2023-04-03T15:28:35;19.40;59.00
21090;DHT22;10703;51.020;6.128;2023-04-03T15:31:03;20.20;59.40
21090;DHT22;10703;51.020;6.128;2023-04-03T15:33:31;20.40;58.70
21090;DHT22;10703;51.020;6.128;2023-04-03T15:35:58;20.50;59.20
21090;DHT22;10703;51.020;6.128;2023-04-03T15:38:33;20.80;58.60
21090;DHT22;10703;51.020;6.128;2023-04-03T15:41:01;20.80;60.40
21090;DHT22;10703;51.020;6.128;2023-04-03T15:43:27;20.40;58.90
21090;DHT22;10703;51.020;6.128;2023-04-03T15:45:56;19.50;58.80
21090;DHT22;10703;51.020;6.128;2023-04-03T15:48:24;19.60;59.50
21090;DHT22;10703;51.020;6.128;2023-04-03T15:50:51;20.00;61.20
21090;DHT22;10703;51.020;6.128;2023-04-03T15:53:18;20.20;59.70
21090;DHT22;10703;51.020;6.128;2023-04-03T15:55:45;19.70;59.90
21090;DHT22;10703;51.020;6.128;2023-04-03T15:58:12;19.60;60.10
21090;DHT22;10703;51.020;6.128;2023-04-03T16:00:39;20.00;60.00
21090;DHT22;10703;51.020;6.128;2023-04-03T16:03:09;19.60;60.00
21090;DHT22;10703;51.020;6.128;2023-04-03T16:05:38;19.30;61.20
21090;DHT22;10703;51.020;6.128;2023-04-03T16:08:05;18.90;62.00
21090;DHT22;10703;51.020;6.128;2023-04-03T16:10:35;18.80;62.10
21090;DHT22;10703;51.020;6.128;2023-04-03T16:13:03;18.90;61.20
21090;DHT22;10703;51.020;6.128;2023-04-03T16:15:30;19.10;61.00
21090;DHT22;10703;51.020;6.128;2023-04-03T16:17:59;19.40;61.20
21090;DHT22;10703;51.020;6.128;2023-04-03T16:20:26;19.20;60.80
21090;DHT22;10703;51.020;6.128;2023-04-03T16:22:53;18.80;61.30
21090;DHT22;10703;51.020;6.128;2023-04-03T16:25:24;18.30;63.30
21090;DHT22;10703;51.020;6.128;2023-04-03T16:27:51;18.70;63.30
21090;DHT22;10703;51.020;6.128;2023-04-03T16:30:18;18.70;62.30
21090;DHT22;10703;51.020;6.128;2023-04-03T16:32:45;17.80;63.10
21090;DHT22;10703;51.020;6.128;2023-04-03T16:35:12;17.90;63.70
21090;DHT22;10703;51.020;6.128;2023-04-03T16:37:39;17.80;64.90
21090;DHT22;10703;51.020;6.128;2023-04-03T16:40:07;17.70;63.90
21090;DHT22;10703;51.020;6.128;2023-04-03T16:42:34;17.30;64.50
21090;DHT22;10703;51.020;6.128;2023-04-03T16:45:04;16.10;66.20
21090;DHT22;10703;51.020;6.128;2023-04-03T16:47:32;16.40;67.10
21090;DHT22;10703;51.020;6.128;2023-04-03T16:49:59;16.50;65.70
21090;DHT22;10703;51.020;6.128;2023-04-03T16:52:26;16.50;65.40
21090;DHT22;10703;51.020;6.128;2023-04-03T16:54:52;16.00;66.20
21090;DHT22;10703;51.020;6.128;2023-04-03T16:57:22;15.90;66.30
21090;DHT22;10703;51.020;6.128;2023-04-03T16:59:51;15.90;66.60
21090;DHT22;10703;51.020;6.128;2023-04-03T17:02:19;16.00;66.80
21090;DHT22;10703;51.020;6.128;2023-04-03T17:04:46;16.20;67.10